Latest Coastal Weather Observations for Swanbourne

IDW60701

Issued at 8:22 pm WST Sunday 29 March 2015 (issued every 10 minutes, with the page automatically refreshed every 10 minutes)

About coastal observations | Map of coastal stations | Coastal observations for WA | Marine services | Other Formats
Station Details ID: 009215 Name: SWANBOURNE Lat: -31.96 Lon: 115.76 Height: 40.96 m
Data from the previous 72 hours. | See also: Recent months at Swanbourne
Date/Time
WST
Temp

°C
Wind Pressure Rain
since 9am
mm
Weather Cloud Vis
km
Sea
Height
m
Swell
Dir
 
Speed
knots
Gust
knots
hPa Trend Height
m
Period
s
Dir
29/08:00pm 20.6 SSE 6 9 - - 0.0 - - - - - - -
29/07:30pm 20.6 SSE 6 9 - - 0.0 - - - - - - -
29/07:00pm 21.0 S 7 11 - - 0.0 - - - - - - -
29/06:30pm 21.5 S 6 10 - - 0.0 - - - - - - -
29/06:00pm 22.3 S 7 11 - - 0.0 - - - - - - -
29/05:30pm 23.1 SSW 9 13 - - 0.0 - - - - - - -
29/05:00pm 23.9 SSW 9 14 - - 0.0 - - - - - - -
29/04:30pm 24.2 SSW 10 15 - - 0.0 - - - - - - -
29/04:00pm 25.2 SSW 9 14 - - 0.0 - - - - - - -
29/03:30pm 26.0 SSW 8 12 - - 0.0 - - - - - - -
29/03:00pm 25.9 SSW 9 14 - - 0.0 - - - - - - -
29/02:30pm 25.5 SSW 10 14 - - 0.0 - - - - - - -
29/02:00pm 25.8 SW 10 14 - - 0.0 - - - - - - -
29/01:30pm 25.4 SW 9 13 - - 0.0 - - - - - - -
29/01:00pm 26.1 SW 8 11 - - 0.0 - - - - - - -
29/12:30pm 26.2 SW 8 11 - - 0.0 - - - - - - -
29/12:00pm 25.6 SW 8 11 - - 0.0 - - - - - - -
29/11:30am 25.3 SW 8 10 - - 0.0 - - - - - - -
29/11:00am 25.7 SW 6 10 - - 0.0 - - - - - - -
29/10:30am 25.3 SW 3 5 - - 0.0 - - - - - - -
29/10:00am 25.9 ENE 2 5 - - 0.0 - - - - - - -
29/09:30am 24.4 E 4 10 - - 0.0 - - - - - - -
29/09:00am 22.5 E 8 13 - - 0.0 - - - - - - -
29/08:30am 20.9 E 8 12 - - 0.0 - - - - - - -
29/08:00am 19.1 E 8 11 - - 0.0 - - - - - - -
29/07:30am 17.4 E 8 10 - - 0.0 - - - - - - -
29/07:00am 15.8 ENE 9 13 - - 0.0 - - - - - - -
29/06:30am 14.9 E 9 12 - - 0.0 - - - - - - -
29/06:00am 14.7 E 7 9 - - 0.0 - - - - - - -
29/05:30am 14.8 E 7 9 - - 0.0 - - - - - - -
29/05:00am 14.9 ESE 8 10 - - 0.0 - - - - - - -
29/04:30am 14.8 ESE 8 9 - - 0.0 - - - - - - -
29/04:00am 14.7 SE 4 6 - - 0.0 - - - - - - -
29/03:30am 15.0 ESE 2 3 - - 0.0 - - - - - - -
29/03:00am 15.7 ESE 3 3 - - 0.0 - - - - - - -
29/02:30am 16.0 SSE 4 5 - - 0.0 - - - - - - -
29/02:00am 16.3 ESE 3 3 - - 0.0 - - - - - - -
29/01:30am 16.5 SSE 3 3 - - 0.0 - - - - - - -
29/01:00am 16.8 SSE 4 5 - - 0.0 - - - - - - -
29/12:30am 16.9 S 5 6 - - 0.0 - - - - - - -
29/12:00am 17.2 SSE 4 5 - - 0.0 - - - - - - -
 
Date/Time
WST
Temp

°C
Wind Pressure Rain
since 9am
mm
Weather Cloud Vis
km
Sea
Height
m
Swell
Dir
 
Speed
knots
Gust
knots
hPa Trend Height
m
Period
s
Dir
28/11:30pm 17.4 SE 4 5 - - 0.0 - - - - - - -
28/11:00pm 17.7 SSE 5 6 - - 0.0 - - - - - - -
28/10:30pm 18.0 SSE 6 10 - - 0.0 - - - - - - -
28/10:00pm 18.1 SSE 5 9 - - 0.0 - - - - - - -
28/09:30pm 18.3 SSE 5 7 - - 0.0 - - - - - - -
28/09:00pm 18.7 SSE 6 10 - - 0.0 - - - - - - -
28/08:30pm 18.9 SSE 5 7 - - 0.0 - - - - - - -
28/08:00pm 19.4 S 6 10 - - 0.0 - - - - - - -
28/07:30pm 19.6 S 7 11 - - 0.0 - - - - - - -
28/07:00pm 19.8 S 8 13 - - 0.0 - - - - - - -
28/06:30pm 19.9 SSW 9 13 - - 0.0 - - - - - - -
28/06:00pm 20.5 SSW 11 17 - - 0.0 - - - - - - -
28/05:30pm 21.3 SSW 12 18 - - 0.0 - - - - - - -
28/05:00pm 21.9 SSW 12 19 - - 0.0 - - - - - - -
28/04:30pm 22.6 SW 12 19 - - 0.0 - - - - - - -
28/04:00pm 23.3 SW 12 18 - - 0.0 - - - - - - -
28/03:30pm 22.9 SW 14 20 - - 0.0 - - - - - - -
28/03:00pm 23.2 SW 14 19 - - 0.0 - - - - - - -
28/02:30pm 22.9 SW 15 19 - - 0.0 - - - - - - -
28/02:00pm 23.4 SW 13 17 - - 0.0 - - - - - - -
28/01:30pm 24.1 SW 12 17 - - 0.0 - - - - - - -
28/01:00pm 24.5 SSW 11 15 - - 0.0 - - - - - - -
28/12:30pm 23.8 SW 10 15 - - 0.0 - - - - - - -
28/12:00pm 23.2 SW 11 14 - - 0.0 - - - - - - -
28/11:30am 24.0 SW 8 11 - - 0.0 - - - - - - -
28/11:00am 23.1 WSW 7 9 - - 0.0 - - - - - - -
28/10:30am 23.0 SW 6 8 - - 0.0 - - - - - - -
28/10:00am 22.5 SW 6 9 - - 0.0 - - - - - - -
28/09:30am 21.4 SSW 8 12 - - 0.0 - - - - - - -
28/09:00am 21.2 S 7 10 - - 0.0 - - - - - - -
28/08:30am 20.1 SE 5 8 - - 0.0 - - - - - - -
28/08:00am 18.3 SE 5 8 - - 0.0 - - - - - - -
28/07:30am 16.3 SE 4 6 - - 0.0 - - - - - - -
28/07:00am 14.7 SE 5 7 - - 0.0 - - - - - - -
28/06:30am 14.6 SE 5 6 - - 0.0 - - - - - - -
28/06:00am 14.9 SE 4 5 - - 0.0 - - - - - - -
28/05:30am 15.0 E 4 4 - - 0.0 - - - - - - -
28/05:00am 14.9 E 4 5 - - 0.0 - - - - - - -
28/04:30am 14.9 E 4 5 - - 0.0 - - - - - - -
28/04:00am 15.4 ENE 5 5 - - 0.0 - - - - - - -
28/03:30am 15.8 E 3 4 - - 0.0 - - - - - - -
28/03:00am 15.9 ESE 3 4 - - 0.0 - - - - - - -
28/02:30am 16.0 ESE 3 4 - - 0.0 - - - - - - -
28/02:00am 16.4 E 4 4 - - 0.0 - - - - - - -
28/01:30am 16.6 ESE 3 3 - - 0.0 - - - - - - -
28/01:00am 16.8 SE 3 3 - - 0.0 - - - - - - -
28/12:30am 17.0 SE 4 5 - - 0.0 - - - - - - -
28/12:00am 17.3 SE 4 5 - - 0.0 - - - - - - -
 
Date/Time
WST
Temp

°C
Wind Pressure Rain
since 9am
mm
Weather Cloud Vis
km
Sea
Height
m
Swell
Dir
 
Speed
knots
Gust
knots
hPa Trend Height
m
Period
s
Dir
27/11:30pm 17.7 ESE 4 5 - - 0.0 - - - - - - -
27/11:00pm 18.1 SSE 3 4 - - 0.0 - - - - - - -
27/10:30pm 18.7 SSE 4 6 - - 0.0 - - - - - - -
27/10:00pm 19.4 SSE 7 10 - - 0.0 - - - - - - -
27/09:30pm 19.4 SSE 5 9 - - 0.0 - - - - - - -
27/09:00pm 19.6 S 5 8 - - 0.0 - - - - - - -
27/08:30pm 20.5 S 8 13 - - 0.0 - - - - - - -
27/08:00pm 20.6 S 8 13 - - 0.0 - - - - - - -
27/07:30pm 20.8 S 9 13 - - 0.0 - - - - - - -
27/07:00pm 20.8 SSW 9 13 - - 0.0 - - - - - - -
27/06:30pm 20.9 SSW 8 11 - - 0.0 - - - - - - -
27/06:00pm 21.8 SSW 9 14 - - 0.0 - - - - - - -
27/05:30pm 22.6 SSW 11 17 - - 0.0 - - - - - - -
27/05:00pm 23.1 SSW 13 19 - - 0.0 - - - - - - -
27/04:30pm 23.7 SSW 12 18 - - 0.0 - - - - - - -
27/04:00pm 24.4 SSW 11 15 - - 0.0 - - - - - - -
27/03:30pm 25.1 SSW 10 16 - - 0.0 - - - - - - -
27/03:00pm 24.2 SW 11 17 - - 0.0 - - - - - - -
27/02:30pm 24.1 SW 13 17 - - 0.0 - - - - - - -
27/02:00pm 25.1 SW 10 15 - - 0.0 - - - - - - -
27/01:30pm 25.6 SW 8 13 - - 0.0 - - - - - - -
27/01:00pm 24.8 SW 9 12 - - 0.0 - - - - - - -
27/12:30pm 24.2 WSW 8 11 - - 0.0 - - - - - - -
27/12:00pm 25.6 SW 5 9 - - 0.0 - - - - - - -
27/11:30am 24.7 WSW 8 11 - - 0.0 - - - - - - -
27/11:00am 25.2 SW 5 9 - - 0.0 - - - - - - -
27/10:30am 25.0 ESE 3 8 - - 0.0 - - - - - - -
27/10:00am 24.2 SE 5 8 - - 0.0 - - - - - - -
27/09:30am 23.1 ESE 6 9 - - 0.0 - - - - - - -
27/09:00am 21.7 ESE 8 12 - - 2.4 - - - - - - -
27/08:30am 20.5 E 9 13 - - 2.4 - - - - - - -
27/08:00am 19.5 E 10 12 - - 2.4 - - - - - - -
27/07:30am 18.4 E 8 13 - - 2.4 - - - - - - -
27/07:00am 17.2 E 7 10 - - 2.4 - - - - - - -
27/06:30am 17.3 E 8 13 - - 2.4 - - - - - - -
27/06:00am 17.4 E 9 13 - - 2.4 - - - - - - -
27/05:30am 17.2 E 8 14 - - 2.4 - - - - - - -
27/05:00am 17.3 E 8 11 - - 2.4 - - - - - - -
27/04:30am 16.7 E 7 10 - - 2.4 - - - - - - -
27/04:00am 16.6 E 5 8 - - 2.4 - - - - - - -
27/03:30am 16.9 ENE 3 5 - - 2.4 - - - - - - -
27/03:00am 16.9 ESE 5 8 - - 2.4 - - - - - - -
27/02:30am 17.4 E 5 6 - - 2.4 - - - - - - -
27/02:00am 18.0 ESE 5 8 - - 2.4 - - - - - - -
27/01:30am 18.1 ESE 6 7 - - 2.4 - - - - - - -
27/01:00am 17.8 ESE 5 7 - - 2.4 - - - - - - -
27/12:30am 18.0 ESE 5 8 - - 2.4 - - - - - - -
27/12:00am 17.9 SE 3 5 - - 2.4 - - - - - - -
 
Date/Time
WST
Temp

°C
Wind Pressure Rain
since 9am
mm
Weather Cloud Vis
km
Sea
Height
m
Swell
Dir
 
Speed
knots
Gust
knots
hPa Trend Height
m
Period
s
Dir
26/11:30pm 18.1 SE 4 6 - - 2.4 - - - - - - -
26/11:00pm 18.4 SE 4 5 - - 2.4 - - - - - - -
26/10:30pm 18.7 ESE 5 7 - - 2.4 - - - - - - -
26/10:00pm 18.5 ESE 6 9 - - 2.4 - - - - - - -
26/09:30pm 18.1 SE 3 4 - - 2.4 - - - - - - -
26/09:00pm 18.4 ESE 2 3 - - 2.4 Recent precip. - - - - - -
26/08:30pm 19.4 N 6 8 - - 1.8 - - - - - - -

Other Formats:

Comma delimited format used in spreadsheet applications
http://www.bom.gov.au/fwo/IDW60701/IDW60701.94614.axf

JavaScript Object Notation format (JSON) in row-major order
http://www.bom.gov.au/fwo/IDW60701/IDW60701.94614.json